sensor_id;sensor_type;location;lat;lon;timestamp;temperature;humidity
25200;DHT22;33094;48.782;9.162;2023-04-24T00:09:25;12.20;99.90
25200;DHT22;33094;48.782;9.162;2023-04-24T03:52:58;11.50;99.90
25200;DHT22;33094;48.782;9.162;2023-04-24T03:55:23;11.40;99.90
25200;DHT22;33094;48.782;9.162;2023-04-24T04:19:23;11.60;99.90
25200;DHT22;33094;48.782;9.162;2023-04-24T04:34:19;11.50;99.90
25200;DHT22;33094;48.782;9.162;2023-04-24T04:40:07;11.10;99.90
25200;DHT22;33094;48.782;9.162;2023-04-24T04:42:36;11.10;99.90
25200;DHT22;33094;48.782;9.162;2023-04-24T04:45:09;11.10;99.90
25200;DHT22;33094;48.782;9.162;2023-04-24T04:47:56;11.00;99.90
25200;DHT22;33094;48.782;9.162;2023-04-24T04:50:25;10.80;99.90
25200;DHT22;33094;48.782;9.162;2023-04-24T04:52:53;10.60;99.90
25200;DHT22;33094;48.782;9.162;2023-04-24T04:55:19;10.50;99.90
25200;DHT22;33094;48.782;9.162;2023-04-24T04:57:47;10.50;99.90
25200;DHT22;33094;48.782;9.162;2023-04-24T05:00:13;10.50;99.90
25200;DHT22;33094;48.782;9.162;2023-04-24T05:02:39;10.50;99.90
25200;DHT22;33094;48.782;9.162;2023-04-24T05:05:05;10.50;99.90
25200;DHT22;33094;48.782;9.162;2023-04-24T05:07:31;10.50;99.90
25200;DHT22;33094;48.782;9.162;2023-04-24T05:09:57;10.50;99.90
25200;DHT22;33094;48.782;9.162;2023-04-24T05:12:23;10.60;99.90
25200;DHT22;33094;48.782;9.162;2023-04-24T05:14:48;10.60;99.90
25200;DHT22;33094;48.782;9.162;2023-04-24T05:17:15;10.60;99.90
25200;DHT22;33094;48.782;9.162;2023-04-24T05:19:40;10.60;99.90
25200;DHT22;33094;48.782;9.162;2023-04-24T05:22:06;10.70;99.90
25200;DHT22;33094;48.782;9.162;2023-04-24T05:24:36;10.70;99.90
25200;DHT22;33094;48.782;9.162;2023-04-24T05:27:05;10.70;99.90
25200;DHT22;33094;48.782;9.162;2023-04-24T05:29:31;10.80;99.90
25200;DHT22;33094;48.782;9.162;2023-04-24T05:31:57;10.70;99.90
25200;DHT22;33094;48.782;9.162;2023-04-24T05:34:23;10.80;99.90
25200;DHT22;33094;48.782;9.162;2023-04-24T05:36:49;10.80;99.90
25200;DHT22;33094;48.782;9.162;2023-04-24T05:39:16;11.00;99.90
25200;DHT22;33094;48.782;9.162;2023-04-24T05:41:42;11.00;99.90
25200;DHT22;33094;48.782;9.162;2023-04-24T05:44:07;10.90;99.90
25200;DHT22;33094;48.782;9.162;2023-04-24T05:46:33;10.90;99.90
25200;DHT22;33094;48.782;9.162;2023-04-24T05:48:59;10.90;99.90
25200;DHT22;33094;48.782;9.162;2023-04-24T05:51:25;10.90;99.90
25200;DHT22;33094;48.782;9.162;2023-04-24T05:53:51;10.90;99.90
25200;DHT22;33094;48.782;9.162;2023-04-24T05:56:17;11.00;99.90
25200;DHT22;33094;48.782;9.162;2023-04-24T05:58:46;11.00;99.90
25200;DHT22;33094;48.782;9.162;2023-04-24T06:01:12;10.90;99.90
25200;DHT22;33094;48.782;9.162;2023-04-24T06:03:40;11.00;99.90
25200;DHT22;33094;48.782;9.162;2023-04-24T06:06:07;10.90;99.90
25200;DHT22;33094;48.782;9.162;2023-04-24T06:08:33;10.90;99.90
25200;DHT22;33094;48.782;9.162;2023-04-24T06:10:59;10.90;99.90
25200;DHT22;33094;48.782;9.162;2023-04-24T06:13:28;11.00;99.90
25200;DHT22;33094;48.782;9.162;2023-04-24T06:15:56;11.00;99.90
25200;DHT22;33094;48.782;9.162;2023-04-24T06:18:22;10.80;99.90
25200;DHT22;33094;48.782;9.162;2023-04-24T06:20:47;10.80;99.90
25200;DHT22;33094;48.782;9.162;2023-04-24T06:23:13;10.90;99.90
25200;DHT22;33094;48.782;9.162;2023-04-24T06:25:39;10.90;99.90
25200;DHT22;33094;48.782;9.162;2023-04-24T06:28:05;10.90;99.90
25200;DHT22;33094;48.782;9.162;2023-04-24T06:30:31;10.90;99.90
25200;DHT22;33094;48.782;9.162;2023-04-24T06:32:56;10.80;99.90
25200;DHT22;33094;48.782;9.162;2023-04-24T06:35:22;10.90;99.90
25200;DHT22;33094;48.782;9.162;2023-04-24T06:37:48;11.00;99.90
25200;DHT22;33094;48.782;9.162;2023-04-24T06:40:14;11.00;99.90
25200;DHT22;33094;48.782;9.162;2023-04-24T06:42:40;11.00;99.90
25200;DHT22;33094;48.782;9.162;2023-04-24T06:45:10;11.20;99.90
25200;DHT22;33094;48.782;9.162;2023-04-24T06:47:51;11.20;99.90
25200;DHT22;33094;48.782;9.162;2023-04-24T06:50:23;11.30;99.90
25200;DHT22;33094;48.782;9.162;2023-04-24T06:52:54;11.40;99.90
25200;DHT22;33094;48.782;9.162;2023-04-24T06:55:22;11.60;99.90
25200;DHT22;33094;48.782;9.162;2023-04-24T06:57:48;11.60;99.90
25200;DHT22;33094;48.782;9.162;2023-04-24T07:00:13;11.80;99.90
25200;DHT22;33094;48.782;9.162;2023-04-24T07:02:39;12.00;99.90
25200;DHT22;33094;48.782;9.162;2023-04-24T07:05:05;12.30;99.90
25200;DHT22;33094;48.782;9.162;2023-04-24T07:07:30;12.50;99.90
25200;DHT22;33094;48.782;9.162;2023-04-24T07:09:56;12.50;99.90
25200;DHT22;33094;48.782;9.162;2023-04-24T07:12:23;12.60;99.90
25200;DHT22;33094;48.782;9.162;2023-04-24T07:14:48;12.50;99.90
25200;DHT22;33094;48.782;9.162;2023-04-24T07:17:14;12.50;99.70
25200;DHT22;33094;48.782;9.162;2023-04-24T07:19:40;12.40;99.90
25200;DHT22;33094;48.782;9.162;2023-04-24T07:22:05;12.30;99.90
25200;DHT22;33094;48.782;9.162;2023-04-24T07:24:52;12.30;99.90
25200;DHT22;33094;48.782;9.162;2023-04-24T07:27:20;12.30;99.90
25200;DHT22;33094;48.782;9.162;2023-04-24T07:29:45;12.30;99.90
25200;DHT22;33094;48.782;9.162;2023-04-24T07:32:11;12.30;99.70
25200;DHT22;33094;48.782;9.162;2023-04-24T07:34:52;12.50;98.50
25200;DHT22;33094;48.782;9.162;2023-04-24T07:37:18;12.60;97.90
25200;DHT22;33094;48.782;9.162;2023-04-24T07:39:46;12.60;98.00
25200;DHT22;33094;48.782;9.162;2023-04-24T07:42:12;12.80;97.80
25200;DHT22;33094;48.782;9.162;2023-04-24T07:44:37;13.10;97.20
25200;DHT22;33094;48.782;9.162;2023-04-24T07:47:03;13.20;96.30
25200;DHT22;33094;48.782;9.162;2023-04-24T07:49:32;13.40;96.10
25200;DHT22;33094;48.782;9.162;2023-04-24T07:51:59;13.20;95.10
25200;DHT22;33094;48.782;9.162;2023-04-24T07:54:32;13.00;95.60
25200;DHT22;33094;48.782;9.162;2023-04-24T07:57:04;13.00;95.20
25200;DHT22;33094;48.782;9.162;2023-04-24T07:59:32;13.00;95.40
25200;DHT22;33094;48.782;9.162;2023-04-24T08:01:57;12.90;95.30
25200;DHT22;33094;48.782;9.162;2023-04-24T08:04:23;12.90;95.30
25200;DHT22;33094;48.782;9.162;2023-04-24T08:06:48;13.00;95.30
25200;DHT22;33094;48.782;9.162;2023-04-24T08:09:14;13.10;95.00
25200;DHT22;33094;48.782;9.162;2023-04-24T08:11:40;12.60;94.60
25200;DHT22;33094;48.782;9.162;2023-04-24T08:14:05;12.60;95.10
25200;DHT22;33094;48.782;9.162;2023-04-24T08:16:32;12.50;95.10
25200;DHT22;33094;48.782;9.162;2023-04-24T08:18:58;12.50;95.40
25200;DHT22;33094;48.782;9.162;2023-04-24T08:21:24;12.60;95.20
25200;DHT22;33094;48.782;9.162;2023-04-24T08:23:50;12.70;94.90
25200;DHT22;33094;48.782;9.162;2023-04-24T08:26:16;13.00;95.00
25200;DHT22;33094;48.782;9.162;2023-04-24T08:28:42;13.20;94.40
25200;DHT22;33094;48.782;9.162;2023-04-24T08:31:08;13.30;94.30
25200;DHT22;33094;48.782;9.162;2023-04-24T08:33:33;13.70;94.50
25200;DHT22;33094;48.782;9.162;2023-04-24T08:36:03;13.90;93.80
25200;DHT22;33094;48.782;9.162;2023-04-24T08:38:29;13.60;93.80
25200;DHT22;33094;48.782;9.162;2023-04-24T08:40:56;13.20;94.00
25200;DHT22;33094;48.782;9.162;2023-04-24T08:43:21;13.00;94.30
25200;DHT22;33094;48.782;9.162;2023-04-24T08:45:47;13.00;94.20
25200;DHT22;33094;48.782;9.162;2023-04-24T08:48:13;12.90;94.70
25200;DHT22;33094;48.782;9.162;2023-04-24T08:50:40;12.70;95.00
25200;DHT22;33094;48.782;9.162;2023-04-24T08:53:08;12.70;94.90
25200;DHT22;33094;48.782;9.162;2023-04-24T08:55:34;12.50;95.20
25200;DHT22;33094;48.782;9.162;2023-04-24T08:58:01;12.40;95.60
25200;DHT22;33094;48.782;9.162;2023-04-24T09:00:30;12.30;95.50
25200;DHT22;33094;48.782;9.162;2023-04-24T09:02:57;12.40;95.30
25200;DHT22;33094;48.782;9.162;2023-04-24T09:05:23;12.80;95.30
25200;DHT22;33094;48.782;9.162;2023-04-24T09:07:56;13.20;95.10
25200;DHT22;33094;48.782;9.162;2023-04-24T09:10:23;13.70;94.50
25200;DHT22;33094;48.782;9.162;2023-04-24T09:12:52;13.20;94.60
25200;DHT22;33094;48.782;9.162;2023-04-24T09:15:20;12.70;95.60
25200;DHT22;33094;48.782;9.162;2023-04-24T09:17:46;12.40;95.90
25200;DHT22;33094;48.782;9.162;2023-04-24T09:20:12;12.30;96.20
25200;DHT22;33094;48.782;9.162;2023-04-24T09:22:38;11.90;98.00
25200;DHT22;33094;48.782;9.162;2023-04-24T09:25:07;11.60;97.80
25200;DHT22;33094;48.782;9.162;2023-04-24T09:27:34;11.40;98.70
25200;DHT22;33094;48.782;9.162;2023-04-24T09:30:01;11.40;98.90
25200;DHT22;33094;48.782;9.162;2023-04-24T09:32:27;11.30;98.80
25200;DHT22;33094;48.782;9.162;2023-04-24T09:35:14;11.30;99.40
25200;DHT22;33094;48.782;9.162;2023-04-24T09:37:46;11.10;99.90
25200;DHT22;33094;48.782;9.162;2023-04-24T09:40:23;10.90;99.90
25200;DHT22;33094;48.782;9.162;2023-04-24T09:42:56;11.00;99.70
25200;DHT22;33094;48.782;9.162;2023-04-24T09:45:38;11.20;99.60
25200;DHT22;33094;48.782;9.162;2023-04-24T09:48:04;11.60;98.80
25200;DHT22;33094;48.782;9.162;2023-04-24T09:50:35;12.00;97.80
25200;DHT22;33094;48.782;9.162;2023-04-24T09:53:05;12.30;97.00
25200;DHT22;33094;48.782;9.162;2023-04-24T09:55:31;12.30;96.50
25200;DHT22;33094;48.782;9.162;2023-04-24T09:57:58;12.40;96.70
25200;DHT22;33094;48.782;9.162;2023-04-24T10:03:07;12.60;96.60
25200;DHT22;33094;48.782;9.162;2023-04-24T10:05:35;12.70;95.90
25200;DHT22;33094;48.782;9.162;2023-04-24T10:08:11;12.70;95.30
25200;DHT22;33094;48.782;9.162;2023-04-24T10:10:42;12.80;94.80
25200;DHT22;33094;48.782;9.162;2023-04-24T10:13:13;12.80;94.40
25200;DHT22;33094;48.782;9.162;2023-04-24T10:15:40;13.00;94.50
25200;DHT22;33094;48.782;9.162;2023-04-24T10:18:07;13.30;93.70
25200;DHT22;33094;48.782;9.162;2023-04-24T10:20:34;14.10;92.10
25200;DHT22;33094;48.782;9.162;2023-04-24T10:23:00;15.40;90.30
25200;DHT22;33094;48.782;9.162;2023-04-24T10:25:29;16.20;88.70
25200;DHT22;33094;48.782;9.162;2023-04-24T10:27:56;17.20;86.50
25200;DHT22;33094;48.782;9.162;2023-04-24T10:30:26;17.90;84.10
25200;DHT22;33094;48.782;9.162;2023-04-24T10:32:52;17.50;84.30
25200;DHT22;33094;48.782;9.162;2023-04-24T10:35:19;16.60;84.20
25200;DHT22;33094;48.782;9.162;2023-04-24T10:37:59;15.30;87.60
